Time;durP1;ratioP1;P1;durP2;ratioP2;P2;SDS_P1;SDS_P2;PMS_P1;PMS_P2;Temp;Humidity;BMP_temperature;BMP_pressure;BME280_temperature;BME280_humidity;BME280_pressure;Samples;Min_cycle;Max_cycle;Signal;HPM_P1;HPM_P2
2023/06/16 00:00:43;;;;;;;5.50;3.80;;;;;;;23.52;45.95;99861.66;5093092;28;20051;-63
2023/06/16 00:03:15;;;;;;;;;;;;;;;23.52;46.13;99867.09;5093413;28;20048;-63
2023/06/16 00:05:45;;;;;;;6.57;4.05;;;;;;;23.52;46.11;99864.38;5092850;28;20350;-63
2023/06/16 00:08:14;;;;;;;5.38;3.78;;;;;;;23.49;46.10;99862.88;5092893;28;20735;-63
2023/06/16 00:10:43;;;;;;;5.72;3.80;;;;;;;23.49;46.17;99870.19;5092902;28;20044;-63
2023/06/16 00:13:11;;;;;;;6.07;3.80;;;;;;;23.47;46.16;99873.13;5092911;28;20039;-63
2023/06/16 00:15:40;;;;;;;5.63;3.70;;;;;;;23.47;46.60;99866.81;5092791;28;20085;-62
2023/06/16 00:18:08;;;;;;;10.98;4.22;;;;;;;23.45;46.41;99855.25;5092604;28;20481;-63
2023/06/16 00:20:37;;;;;;;6.55;4.15;;;;;;;23.45;46.36;99866.13;5092581;28;20381;-63
2023/06/16 00:23:09;;;;;;;6.70;4.00;;;;;;;23.42;46.49;99857.31;5092749;28;20044;-63
2023/06/16 00:25:37;;;;;;;6.35;4.00;;;;;;;23.42;46.36;99857.31;5092595;28;20048;-63
2023/06/16 00:28:05;;;;;;;6.10;4.00;;;;;;;23.41;46.36;99855.63;5092487;28;20040;-63
2023/06/16 00:30:33;;;;;;;6.00;3.97;;;;;;;23.41;46.39;99850.19;5092551;28;20040;-62
2023/06/16 00:33:02;;;;;;;6.32;3.75;;;;;;;23.41;46.45;99850.19;5090948;28;20131;-63
2023/06/16 00:35:30;;;;;;;6.18;4.00;;;;;;;23.40;46.37;99845.78;5092549;28;20051;-63
2023/06/16 00:38:00;;;;;;;6.38;3.58;;;;;;;23.39;46.07;99848.69;5092251;28;20048;-63
2023/06/16 00:40:28;;;;;;;6.38;3.97;;;;;;;23.39;46.52;99843.25;5092279;28;20044;-61
2023/06/16 00:42:58;;;;;;;5.40;3.50;;;;;;;23.38;46.58;99847.84;5092057;28;20040;-63
2023/06/16 00:45:26;;;;;;;6.00;3.80;;;;;;;23.37;46.59;99848.03;5091974;28;20080;-63
2023/06/16 00:47:55;;;;;;;5.80;3.75;;;;;;;23.36;46.60;99847.19;5091957;28;20485;-64
2023/06/16 00:50:24;;;;;;;5.60;3.83;;;;;;;23.33;46.55;99850.25;5091340;28;20048;-63
2023/06/16 00:52:53;;;;;;;6.28;4.13;;;;;;;23.32;46.71;99843.13;5092051;28;20059;-64
2023/06/16 00:55:23;;;;;;;5.88;3.90;;;;;;;23.30;46.66;99845.19;5091956;28;20125;-62
2023/06/16 00:57:53;;;;;;;5.07;3.70;;;;;;;23.31;46.81;99846.03;5091941;28;20075;-62
2023/06/16 01:00:22;;;;;;;5.68;3.75;;;;;;;23.29;46.66;99839.94;5092048;28;20052;-63
2023/06/16 01:02:51;;;;;;;6.32;4.10;;;;;;;23.29;46.91;99831.78;5091923;28;20040;-62
2023/06/16 01:05:23;;;;;;;6.07;3.75;;;;;;;23.28;46.82;99839.09;5091489;28;20511;-63
2023/06/16 01:08:09;;;;;;;6.93;3.90;;;;;;;23.29;47.09;99837.22;5091704;28;20059;-63
2023/06/16 01:10:52;;;;;;;5.38;3.53;;;;;;;23.28;47.10;99832.81;5091566;28;20277;-64
2023/06/16 01:13:30;;;;;;;5.63;3.88;;;;;;;23.26;46.68;99835.72;5091825;28;20143;-64
2023/06/16 01:16:02;;;;;;;5.82;3.88;;;;;;;23.26;47.00;99837.56;5091715;28;20054;-63
2023/06/16 01:18:33;;;;;;;6.45;3.97;;;;;;;23.26;47.08;99845.72;5091581;28;20059;-62
2023/06/16 01:21:11;;;;;;;6.57;3.83;;;;;;;23.25;47.02;99838.59;5091628;28;20047;-62
2023/06/16 01:24:02;;;;;;;5.38;3.65;;;;;;;23.24;47.12;99832.31;5091696;28;20404;-63
2023/06/16 01:26:32;;;;;;;5.50;3.78;;;;;;;23.23;47.23;99836.06;5091575;28;20048;-62
2023/06/16 01:29:03;;;;;;;6.03;4.05;;;;;;;23.22;47.30;99831.66;5091414;28;20047;-63
2023/06/16 01:31:32;;;;;;;5.38;3.80;;;;;;;23.21;47.31;99832.69;5091405;28;20055;-63
2023/06/16 01:34:02;;;;;;;6.25;3.67;;;;;;;23.21;47.13;99824.53;5091264;28;20089;-63
2023/06/16 01:36:32;;;;;;;4.65;3.53;;;;;;;23.21;47.00;99829.13;5091505;28;20048;-62
2023/06/16 01:39:02;;;;;;;5.40;3.85;;;;;;;23.20;47.17;99825.56;5091148;28;20477;-62
2023/06/16 01:41:31;;;;;;;5.25;3.85;;;;;;;23.18;47.33;99835.78;5091211;28;20539;-62
2023/06/16 01:44:01;;;;;;;5.68;3.80;;;;;;;23.18;47.30;99838.50;5091031;28;20044;-61
2023/06/16 01:46:30;;;;;;;6.47;3.90;;;;;;;23.17;47.20;99842.25;5091297;28;20404;-63
2023/06/16 01:48:59;;;;;;;5.22;3.60;;;;;;;23.16;47.28;99832.38;5091275;28;20052;-63
2023/06/16 01:51:30;;;;;;;5.32;3.50;;;;;;;23.15;47.16;99830.69;5091415;28;20080;-63
2023/06/16 01:53:58;;;;;;;6.55;3.90;;;;;;;23.15;47.25;99827.97;5091174;28;20056;-63
2023/06/16 01:56:30;;;;;;;5.65;3.70;;;;;;;23.15;47.29;99836.13;5091028;28;20052;-64
2023/06/16 01:58:58;;;;;;;6.32;3.85;;;;;;;23.13;47.24;99838.19;5091000;28;20047;-62
2023/06/16 02:01:31;;;;;;;6.40;3.92;;;;;;;23.17;47.21;99838.69;5091765;28;20169;-63
2023/06/16 02:04:07;;;;;;;4.85;3.55;;;;;;;23.17;47.18;99844.16;5095062;28;20048;-63
2023/06/16 02:06:48;;;;;;;5.25;3.70;;;;;;;23.16;47.18;99832.38;5093876;28;20052;-64
2023/06/16 02:09:18;;;;;;;5.20;3.63;;;;;;;23.14;47.26;99829.00;5094611;28;20135;-64
2023/06/16 02:11:51;;;;;;;6.35;3.72;;;;;;;23.15;47.18;99825.25;5094964;28;20044;-63
2023/06/16 02:14:21;;;;;;;5.00;3.75;;;;;;;23.13;47.09;99827.31;5094979;28;20140;-64
2023/06/16 02:16:52;;;;;;;5.50;3.75;;;;;;;23.10;47.29;99827.69;5094985;28;20052;-64
2023/06/16 02:19:23;;;;;;;5.25;3.50;;;;;;;23.07;47.36;99825.34;5095005;28;20134;-63
2023/06/16 02:21:51;;;;;;;6.82;3.95;;;;;;;23.07;47.09;99825.34;5094762;28;20068;-63
2023/06/16 02:24:20;;;;;;;6.40;3.78;;;;;;;23.07;47.25;99826.19;5094803;28;20493;-63
2023/06/16 02:26:49;;;;;;;5.65;3.67;;;;;;;23.06;47.14;99821.75;5094559;28;20043;-62
2023/06/16 02:29:21;;;;;;;5.07;3.47;;;;;;;23.07;47.19;99820.75;5094687;28;20040;-63
2023/06/16 02:31:50;;;;;;;5.28;3.55;;;;;;;23.08;47.08;99817.00;5094600;28;20040;-62
2023/06/16 02:34:18;;;;;;;5.10;3.60;;;;;;;23.05;47.36;99816.50;5094445;28;20409;-62
2023/06/16 02:36:47;;;;;;;4.40;3.40;;;;;;;23.04;47.22;99817.53;5093382;28;20052;-63
2023/06/16 02:39:15;;;;;;;5.25;3.67;;;;;;;23.03;47.14;99822.13;5094699;28;20080;-62
2023/06/16 02:41:44;;;;;;;6.15;3.60;;;;;;;23.02;47.45;99819.59;5094608;28;20480;-62
2023/06/16 02:44:14;;;;;;;6.85;3.95;;;;;;;23.01;47.19;99824.19;5094629;28;20055;-62
2023/06/16 02:46:42;;;;;;;5.25;3.63;;;;;;;23.01;47.25;99817.91;5094628;28;20036;-62
2023/06/16 02:49:13;;;;;;;6.10;3.80;;;;;;;23.02;47.44;99814.16;5094548;28;20048;-62
2023/06/16 02:51:42;;;;;;;4.65;3.58;;;;;;;23.02;47.31;99814.16;5094428;28;20048;-62
2023/06/16 02:54:15;;;;;;;5.97;3.75;;;;;;;23.01;47.32;99818.75;5094262;28;20054;-63
2023/06/16 02:56:43;;;;;;;5.07;3.70;;;;;;;23.00;47.25;99816.22;5094178;28;20086;-63
2023/06/16 02:59:12;;;;;;;5.47;3.50;;;;;;;22.99;47.52;99809.94;5094170;28;20059;-63
2023/06/16 03:01:41;;;;;;;5.57;3.55;;;;;;;23.00;47.32;99813.50;5094122;28;20123;-63
2023/06/16 03:04:10;;;;;;;5.22;3.70;;;;;;;22.99;47.47;99814.53;5094210;28;20044;-63
2023/06/16 03:06:39;;;;;;;5.25;3.80;;;;;;;22.99;47.38;99811.81;5094163;28;20040;-63
2023/06/16 03:09:07;;;;;;;5.65;3.80;;;;;;;22.98;47.45;99813.69;5093874;28;20056;-63
2023/06/16 03:11:38;;;;;;;5.50;3.63;;;;;;;22.97;47.58;99817.44;5093878;28;20454;-62
2023/06/16 03:14:08;;;;;;;5.25;3.83;;;;;;;22.97;47.89;99817.44;5092767;28;20443;-63
2023/06/16 03:16:36;;;;;;;5.18;3.70;;;;;;;22.97;47.83;99811.13;5094059;28;20052;-63
2023/06/16 03:19:05;;;;;;;5.03;3.75;;;;;;;22.97;47.72;99816.56;5093926;28;20044;-63
2023/06/16 03:21:34;;;;;;;5.68;3.80;;;;;;;22.96;47.79;99817.59;5092427;28;20048;-63
2023/06/16 03:24:03;;;;;;;5.15;3.80;;;;;;;22.94;47.86;99811.50;5093463;28;20048;-63
2023/06/16 03:26:31;;;;;;;5.20;4.00;;;;;;;22.93;48.01;99809.81;5093407;28;20044;-64
2023/06/16 03:28:59;;;;;;;5.55;3.97;;;;;;;22.91;47.99;99817.31;5093451;28;20332;-63
2023/06/16 03:31:28;;;;;;;6.60;3.83;;;;;;;22.90;48.00;99815.63;5093603;28;20050;-63
2023/06/16 03:33:56;;;;;;;5.00;3.70;;;;;;;22.90;48.02;99815.63;5093430;28;20125;-63
2023/06/16 03:36:40;;;;;;;6.53;3.83;;;;;;;22.89;47.97;99814.78;5093773;28;20074;-63
2023/06/16 03:39:08;;;;;;;6.28;4.10;;;;;;;22.90;47.95;99821.91;5093187;28;20040;-64
2023/06/16 03:41:36;;;;;;;7.43;3.90;;;;;;;22.92;48.00;99819.00;5093197;28;20056;-64
2023/06/16 03:44:04;;;;;;;5.22;3.63;;;;;;;22.93;48.01;99821.53;5093118;28;20048;-64
2023/06/16 03:46:33;;;;;;;5.53;4.00;;;;;;;22.93;47.91;99818.81;5093338;28;20070;-63
2023/06/16 03:49:01;;;;;;;5.50;3.72;;;;;;;22.92;47.79;99819.00;5092881;28;20094;-63
2023/06/16 03:51:30;;;;;;;7.05;3.63;;;;;;;22.91;48.02;99818.16;5098202;28;20116;-64
2023/06/16 03:54:00;;;;;;;7.30;4.32;;;;;;;22.91;48.03;99818.16;5113026;28;20398;-64
2023/06/16 03:56:28;;;;;;;5.00;3.75;;;;;;;22.90;48.08;99816.47;5113543;28;20087;-64
2023/06/16 03:58:56;;;;;;;5.63;3.90;;;;;;;22.90;48.36;99821.06;5113342;28;20047;-63
2023/06/16 04:01:25;;;;;;;5.63;3.97;;;;;;;22.91;47.99;99817.31;5113296;28;20048;-63
2023/06/16 04:03:53;;;;;;;5.30;3.80;;;;;;;22.90;48.15;99826.50;5113185;28;20048;-64
2023/06/16 04:06:21;;;;;;;5.35;3.83;;;;;;;22.90;48.23;99818.34;5113037;28;20049;-63
2023/06/16 04:08:49;;;;;;;7.85;4.40;;;;;;;22.89;48.19;99816.66;5113203;28;20055;-64
2023/06/16 04:11:22;;;;;;;6.97;4.20;;;;;;;22.88;48.30;99814.97;5113118;28;20054;-64
2023/06/16 04:13:50;;;;;;;6.32;3.83;;;;;;;22.87;48.30;99819.53;5112943;28;20496;-63
2023/06/16 04:16:18;;;;;;;6.00;3.92;;;;;;;22.87;48.51;99818.69;5112966;28;20522;-64
2023/06/16 04:18:48;;;;;;;6.80;4.47;;;;;;;22.87;48.41;99821.41;5112790;28;20441;-63
2023/06/16 04:21:16;;;;;;;5.95;4.05;;;;;;;22.86;48.24;99809.69;5113263;28;20474;-63
2023/06/16 04:23:45;;;;;;;6.60;3.85;;;;;;;22.82;48.57;99820.06;5112797;28;20048;-63
2023/06/16 04:26:19;;;;;;;5.78;4.03;;;;;;;22.81;48.63;99817.53;5112804;28;20044;-62
2023/06/16 04:28:54;;;;;;;5.50;3.80;;;;;;;22.81;48.47;99823.81;5112984;28;20049;-62
2023/06/16 04:31:22;;;;;;;7.10;4.20;;;;;;;22.80;48.56;99819.41;5112636;28;20043;-64
2023/06/16 04:33:51;;;;;;;6.28;4.00;;;;;;;22.79;48.62;99820.44;5112470;28;20040;-64
2023/06/16 04:36:19;;;;;;;8.40;4.22;;;;;;;22.80;48.62;99811.25;5112745;28;20420;-64
2023/06/16 04:38:47;;;;;;;6.80;4.10;;;;;;;22.80;48.85;99816.69;5112655;28;20412;-63
2023/06/16 04:41:16;;;;;;;5.68;3.80;;;;;;;22.79;48.78;99823.16;5112558;28;20499;-62
2023/06/16 04:43:44;;;;;;;5.63;4.00;;;;;;;22.79;48.70;99814.16;5112389;28;20112;-62
2023/06/16 04:46:13;;;;;;;6.25;4.10;;;;;;;22.79;48.76;99820.44;5112179;28;20134;-63
2023/06/16 04:48:42;;;;;;;5.82;4.00;;;;;;;22.78;48.68;99813.31;5112253;28;20476;-64
2023/06/16 04:51:10;;;;;;;6.65;4.05;;;;;;;22.77;48.88;99800.72;5112227;28;20051;-64
2023/06/16 04:53:43;;;;;;;6.55;4.05;;;;;;;22.78;48.89;99807.88;5112501;28;20047;-63
2023/06/16 04:56:11;;;;;;;6.10;4.28;;;;;;;22.79;48.93;99804.13;5112172;28;20051;-64
2023/06/16 04:58:39;;;;;;;5.85;4.05;;;;;;;22.79;48.77;99815.00;5112317;28;20079;-63
2023/06/16 05:01:08;;;;;;;6.60;4.20;;;;;;;22.79;48.79;99798.69;5112070;28;20049;-65
2023/06/16 05:03:37;;;;;;;5.90;4.10;;;;;;;22.79;49.00;99798.69;5112081;28;20088;-64
2023/06/16 05:06:06;;;;;;;6.45;3.83;;;;;;;22.80;48.84;99805.81;5112130;28;20043;-64
2023/06/16 05:08:34;;;;;;;8.43;3.80;;;;;;;22.80;48.78;99805.81;5111402;28;20056;-63
2023/06/16 05:11:02;;;;;;;6.18;4.07;;;;;;;22.80;48.77;99816.69;5111792;28;20044;-63
2023/06/16 05:13:31;;;;;;;6.22;3.70;;;;;;;22.81;48.62;99804.78;5111967;28;20043;-63
2023/06/16 05:15:59;;;;;;;7.00;3.83;;;;;;;22.81;48.79;99807.50;5110696;28;20101;-64
2023/06/16 05:18:27;;;;;;;5.55;3.75;;;;;;;22.81;48.70;99807.50;5111878;28;20059;-63
2023/06/16 05:20:57;;;;;;;7.40;4.00;;;;;;;22.82;48.57;99820.06;5111832;28;20047;-63
2023/06/16 05:23:25;;;;;;;5.43;3.80;;;;;;;22.83;48.76;99812.75;5111704;28;20413;-63
2023/06/16 05:25:53;;;;;;;6.63;3.88;;;;;;;22.84;48.69;99814.47;5111462;28;20043;-65
2023/06/16 05:28:22;;;;;;;5.53;3.75;;;;;;;22.85;48.76;99814.28;5111690;28;20044;-62
2023/06/16 05:30:50;;;;;;;5.72;3.70;;;;;;;22.84;48.74;99812.59;5111059;28;20134;-62
2023/06/16 05:33:18;;;;;;;8.32;4.00;;;;;;;22.84;49.09;99815.31;5110730;28;20048;-62
2023/06/16 05:35:46;;;;;;;6.53;3.83;;;;;;;22.85;49.31;99808.84;5110821;28;20083;-62
2023/06/16 05:38:16;;;;;;;7.53;3.53;;;;;;;22.87;49.60;99805.09;5111105;28;20154;-64
2023/06/16 05:40:44;;;;;;;7.85;3.80;;;;;;;22.88;49.72;99814.97;5111028;28;20075;-63
2023/06/16 05:43:12;;;;;;;6.40;4.13;;;;;;;22.88;49.89;99815.81;5111211;28;20135;-63
2023/06/16 05:45:40;;;;;;;7.13;4.03;;;;;;;22.89;50.00;99813.94;5111366;28;20093;-63
2023/06/16 05:48:08;;;;;;;5.63;3.80;;;;;;;22.89;50.25;99822.09;5110998;28;20074;-63
2023/06/16 05:50:36;;;;;;;7.28;3.95;;;;;;;22.90;50.30;99821.06;5111026;28;20130;-63
2023/06/16 05:53:05;;;;;;;6.00;3.95;;;;;;;22.91;49.91;99825.47;5110812;28;20659;-63
2023/06/16 05:55:35;;;;;;;6.13;3.90;;;;;;;22.91;50.41;99823.59;5111091;28;20075;-63
2023/06/16 05:58:03;;;;;;;5.97;3.90;;;;;;;22.92;50.08;99816.28;5111536;28;20144;-63
2023/06/16 06:00:33;;;;;;;6.70;3.90;;;;;;;22.93;50.21;99821.53;5111529;28;20050;-63
2023/06/16 06:03:01;;;;;;;5.38;3.67;;;;;;;22.93;49.92;99826.97;5111203;28;20040;-63
2023/06/16 06:05:29;;;;;;;5.97;4.05;;;;;;;22.94;49.86;99820.50;5111233;28;20044;-64
2023/06/16 06:07:57;;;;;;;6.15;4.25;;;;;;;22.96;50.08;99820.31;5111270;28;20158;-63
2023/06/16 06:10:25;;;;;;;6.18;3.88;;;;;;;22.96;49.96;99823.03;5111155;28;20078;-63
2023/06/16 06:12:55;;;;;;;6.90;4.20;;;;;;;22.97;49.92;99824.72;5111186;28;20425;-63
2023/06/16 06:15:24;;;;;;;6.78;3.60;;;;;;;22.99;50.10;99819.97;5110818;28;20150;-63
2023/06/16 06:17:52;;;;;;;5.28;3.50;;;;;;;22.99;50.39;99820.81;5110870;28;20048;-63
2023/06/16 06:20:21;;;;;;;6.65;3.97;;;;;;;23.01;50.37;99820.63;5111007;28;20052;-63
2023/06/16 06:22:50;;;;;;;6.30;3.80;;;;;;;23.01;50.31;99817.91;5111027;28;20048;-63
2023/06/16 06:25:18;;;;;;;7.22;4.13;;;;;;;23.02;50.46;99822.31;5111013;28;20536;-64
2023/06/16 06:27:46;;;;;;;6.88;3.65;;;;;;;23.02;50.18;99828.59;5111008;28;20087;-63
2023/06/16 06:30:15;;;;;;;6.88;3.78;;;;;;;23.04;50.58;99825.69;5110896;28;20135;-63
2023/06/16 06:32:44;;;;;;;7.82;3.85;;;;;;;23.06;50.89;99829.06;5110794;28;20476;-63
2023/06/16 06:35:12;;;;;;;7.10;3.60;;;;;;;23.05;50.60;99830.94;5111316;28;20576;-63
2023/06/16 06:37:41;;;;;;;7.47;4.07;;;;;;;23.05;50.35;99824.66;5111199;28;20450;-64
2023/06/16 06:40:09;;;;;;;8.05;4.43;;;;;;;23.05;50.41;99830.94;5110825;28;20051;-63
2023/06/16 06:42:38;;;;;;;6.47;4.20;;;;;;;23.08;50.48;99835.19;5110795;28;20047;-63
2023/06/16 06:45:08;;;;;;;7.13;4.28;;;;;;;23.07;50.40;99841.69;5110820;28;20411;-63
2023/06/16 06:47:37;;;;;;;9.90;4.10;;;;;;;23.07;50.41;99841.69;5111228;28;20074;-64
2023/06/16 06:50:07;;;;;;;6.20;4.25;;;;;;;23.08;50.33;99840.66;5114304;28;20083;-63
2023/06/16 06:52:35;;;;;;;6.00;3.70;;;;;;;23.13;50.39;99840.91;5114677;28;20525;-64
2023/06/16 06:55:04;;;;;;;6.60;4.10;;;;;;;23.16;50.16;99843.28;5114390;28;20416;-63
2023/06/16 06:57:33;;;;;;;7.20;3.97;;;;;;;23.17;50.44;99838.69;5114567;28;20040;-64
2023/06/16 07:00:01;;;;;;;6.80;4.03;;;;;;;23.20;50.48;99844.59;5114400;28;20650;-62
2023/06/16 07:02:29;;;;;;;8.13;3.92;;;;;;;23.22;50.42;99839.81;5114415;28;20097;-61
2023/06/16 07:04:59;;;;;;;6.18;3.53;;;;;;;23.26;50.53;99840.28;5114253;28;20122;-63
2023/06/16 07:07:27;;;;;;;6.25;3.70;;;;;;;23.27;50.27;99837.41;5114207;28;20050;-63
2023/06/16 07:09:55;;;;;;;7.85;4.15;;;;;;;23.28;50.55;99840.97;5113908;28;20147;-63
2023/06/16 07:12:23;;;;;;;6.28;4.10;;;;;;;23.28;50.39;99844.53;5113967;28;20047;-63
2023/06/16 07:14:52;;;;;;;6.30;3.90;;;;;;;23.28;50.33;99833.66;5114605;28;20109;-63
2023/06/16 07:17:20;;;;;;;7.03;4.25;;;;;;;23.29;50.50;99843.50;5113806;28;20486;-63
2023/06/16 07:19:48;;;;;;;5.88;3.55;;;;;;;23.30;50.47;99842.47;5114210;28;20385;-63
2023/06/16 07:22:19;;;;;;;6.75;4.18;;;;;;;23.31;50.37;99836.00;5114040;28;20097;-63
2023/06/16 07:24:47;;;;;;;7.88;3.83;;;;;;;23.33;50.40;99838.53;5113742;28;20048;-63
2023/06/16 07:27:18;;;;;;;6.30;3.60;;;;;;;23.33;50.29;99836.66;5113628;27;20050;-62
2023/06/16 07:29:46;;;;;;;5.45;3.78;;;;;;;23.35;50.29;99837.31;5113852;28;20123;-62
2023/06/16 07:32:14;;;;;;;9.93;4.30;;;;;;;23.36;50.43;99841.75;5113883;28;20050;-62
2023/06/16 07:34:44;;;;;;;7.18;4.18;;;;;;;23.36;50.85;99847.19;5113589;28;20043;-63
2023/06/16 07:37:13;;;;;;;8.52;4.40;;;;;;;23.35;50.88;99847.34;5113735;28;20484;-62
2023/06/16 07:39:43;;;;;;;7.57;4.55;;;;;;;23.34;50.96;99845.66;5113594;28;20054;-63
2023/06/16 07:42:11;;;;;;;7.93;4.38;;;;;;;23.32;51.00;99854.00;5113416;28;20411;-62
2023/06/16 07:44:39;;;;;;;8.60;4.57;;;;;;;23.32;51.07;99853.16;5113751;28;20135;-63
2023/06/16 07:47:08;;;;;;;7.07;4.47;;;;;;;23.32;51.22;99858.63;5113898;28;20126;-62
2023/06/16 07:49:38;;;;;;;9.18;4.70;;;;;;;23.30;51.25;99853.34;5113151;28;20061;-63
2023/06/16 07:52:07;;;;;;;7.03;4.65;;;;;;;23.27;51.28;99855.63;5112916;28;20055;-62
2023/06/16 07:54:36;;;;;;;7.25;4.47;;;;;;;23.26;51.17;99854.78;5113429;28;20084;-62
2023/06/16 07:57:06;;;;;;;8.85;4.82;;;;;;;23.26;51.50;99854.78;5112948;28;20051;-62
2023/06/16 07:59:34;;;;;;;7.13;4.65;;;;;;;23.26;51.50;99862.06;5112248;28;20508;-62
2023/06/16 08:02:03;;;;;;;6.72;4.28;;;;;;;23.27;51.41;99861.06;5113299;28;20066;-62
2023/06/16 08:04:31;;;;;;;8.70;4.88;;;;;;;23.27;51.44;99866.50;5112938;28;20043;-63
2023/06/16 08:07:00;;;;;;;7.63;4.63;;;;;;;23.28;51.30;99863.59;5112876;28;20088;-63
2023/06/16 08:09:28;;;;;;;6.85;4.43;;;;;;;23.29;51.39;99861.72;5112582;28;20151;-61
2023/06/16 08:11:56;;;;;;;6.00;4.72;;;;;;;23.29;51.48;99865.28;5112900;28;20047;-63
2023/06/16 08:14:26;;;;;;;7.65;4.78;;;;;;;23.29;51.44;99857.13;5113011;28;20051;-63
2023/06/16 08:16:54;;;;;;;7.82;4.43;;;;;;;23.30;51.44;99856.09;5112773;28;20047;-63
2023/06/16 08:19:22;;;;;;;6.25;4.25;;;;;;;23.33;51.11;99858.41;5112566;28;20088;-62
2023/06/16 08:21:50;;;;;;;7.18;4.15;;;;;;;23.35;51.05;99860.97;5112821;28;20051;-61
2023/06/16 08:24:18;;;;;;;6.80;4.45;;;;;;;23.36;51.00;99854.50;5112593;28;20048;-62
2023/06/16 08:26:46;;;;;;;6.68;3.70;;;;;;;23.38;50.96;99858.72;5112720;28;20052;-62
2023/06/16 08:29:15;;;;;;;6.80;4.47;;;;;;;23.41;51.04;99852.06;5112660;28;20047;-61
2023/06/16 08:31:44;;;;;;;5.90;3.95;;;;;;;23.42;50.93;99854.59;5112171;28;20096;-62
2023/06/16 08:34:12;;;;;;;6.53;4.07;;;;;;;23.45;50.87;99852.53;5112002;28;20094;-63
2023/06/16 08:36:41;;;;;;;7.03;4.00;;;;;;;23.47;51.06;99861.38;5112444;28;20404;-64
2023/06/16 08:39:09;;;;;;;6.63;4.13;;;;;;;23.49;50.95;99862.03;5112410;28;20342;-63
2023/06/16 08:41:39;;;;;;;6.15;4.20;;;;;;;23.50;50.95;99858.28;5112618;28;20457;-63
2023/06/16 08:44:08;;;;;;;6.32;4.43;;;;;;;23.51;50.85;99849.09;5112138;28;20044;-61
2023/06/16 08:46:38;;;;;;;5.13;3.90;;;;;;;23.53;50.79;99857.91;5112066;27;20043;-63
2023/06/16 08:49:07;;;;;;;8.63;3.85;;;;;;;23.54;50.79;99852.25;5112013;28;20051;-61
2023/06/16 08:51:40;;;;;;;6.65;3.90;;;;;;;23.55;50.78;99853.97;5112084;28;20057;-63
2023/06/16 08:54:12;;;;;;;5.85;3.83;;;;;;;23.57;50.67;99856.50;5111874;28;20052;-63
2023/06/16 08:56:43;;;;;;;6.40;3.97;;;;;;;23.59;50.55;99857.19;5112172;28;20485;-63
2023/06/16 08:59:13;;;;;;;5.78;3.80;;;;;;;23.60;50.54;99857.00;5111777;28;20043;-62
2023/06/16 09:01:42;;;;;;;7.05;4.10;;;;;;;23.61;50.46;99857.84;5112031;28;20083;-62
2023/06/16 09:04:13;;;;;;;6.50;4.10;;;;;;;23.62;50.52;99849.50;5111849;28;20066;-62
2023/06/16 09:06:45;;;;;;;6.63;4.05;;;;;;;23.64;50.39;99854.75;5111947;28;20101;-62
2023/06/16 09:09:14;;;;;;;8.20;3.70;;;;;;;23.67;50.57;99851.69;5111782;28;20381;-62
2023/06/16 09:11:42;;;;;;;6.55;3.70;;;;;;;23.67;50.45;99854.41;5110532;28;20065;-63
2023/06/16 09:14:13;;;;;;;5.85;4.05;;;;;;;23.68;50.33;99853.38;5111898;28;20055;-62
2023/06/16 09:16:42;;;;;;;8.55;4.10;;;;;;;23.70;50.15;99854.00;5111804;28;20040;-62
2023/06/16 09:19:12;;;;;;;6.50;3.67;;;;;;;23.70;50.29;99857.59;5111817;28;20052;-62
2023/06/16 09:21:42;;;;;;;5.50;3.78;;;;;;;23.73;50.20;99856.34;5111688;28;20098;-63
2023/06/16 09:24:23;;;;;;;7.00;4.20;;;;;;;23.75;49.97;99857.03;5111430;28;20081;-62
2023/06/16 09:26:52;;;;;;;7.07;4.43;;;;;;;23.75;49.83;99859.75;5111860;28;20048;-62
2023/06/16 09:29:25;;;;;;;6.73;4.37;;;;;;;23.76;49.46;99849.72;5111677;28;20048;-62
2023/06/16 09:31:54;;;;;;;5.20;3.85;;;;;;;23.76;49.74;99853.28;5111450;28;20047;-62
2023/06/16 09:34:33;;;;;;;6.60;3.85;;;;;;;23.80;49.95;99853.75;5111592;28;20066;-62
2023/06/16 09:37:01;;;;;;;5.95;4.10;;;;;;;23.80;50.04;99851.88;5111798;28;20051;-62
2023/06/16 09:39:29;;;;;;;6.25;4.38;;;;;;;23.83;50.03;99847.91;5111645;28;20180;-62
2023/06/16 09:41:58;;;;;;;5.30;3.72;;;;;;;23.84;49.90;99844.19;5111459;28;20093;-62
2023/06/16 09:44:27;;;;;;;5.57;3.90;;;;;;;23.86;49.85;99844.84;5111204;28;20051;-61
2023/06/16 09:46:55;;;;;;;5.57;4.20;;;;;;;23.87;49.68;99847.38;5111147;28;20074;-62
2023/06/16 09:49:25;;;;;;;5.90;4.03;;;;;;;23.89;49.76;99842.56;5111030;28;20437;-62
2023/06/16 09:51:55;;;;;;;5.90;3.85;;;;;;;23.91;49.72;99832.31;5110997;28;20096;-63
2023/06/16 09:54:24;;;;;;;5.70;4.07;;;;;;;23.93;49.89;99837.56;5111262;28;20044;-62
2023/06/16 09:56:55;;;;;;;5.68;3.80;;;;;;;23.94;49.71;99837.41;5111178;28;20458;-62
2023/06/16 09:59:26;;;;;;;6.30;3.90;;;;;;;23.96;49.64;99826.31;5111315;28;20039;-62
2023/06/16 10:01:55;;;;;;;6.25;3.92;;;;;;;23.99;49.49;99834.09;5111032;28;20052;-62
2023/06/16 10:04:25;;;;;;;6.18;4.32;;;;;;;24.02;49.35;99832.88;5111379;28;20071;-62
2023/06/16 10:07:00;;;;;;;6.95;4.30;;;;;;;24.04;49.16;99839.00;5111166;28;20082;-62
2023/06/16 10:09:33;;;;;;;6.68;3.67;;;;;;;24.06;49.05;99826.88;5110692;28;20089;-62
2023/06/16 10:12:03;;;;;;;5.35;3.97;;;;;;;24.08;49.04;99815.78;5110885;28;20058;-62
2023/06/16 10:14:35;;;;;;;8.80;4.47;;;;;;;24.11;48.20;99820.84;5110768;28;20047;-62
2023/06/16 10:17:07;;;;;;;5.57;3.78;;;;;;;24.13;47.85;99814.19;5111291;28;20365;-61
2023/06/16 10:19:39;;;;;;;6.47;4.47;;;;;;;24.15;47.07;99805.81;5110969;28;20519;-63
2023/06/16 10:22:07;;;;;;;6.35;4.22;;;;;;;24.18;47.13;99813.59;5111110;28;20516;-62
2023/06/16 10:24:40;;;;;;;5.70;4.07;;;;;;;24.18;47.00;99806.28;5114830;27;20055;-64
2023/06/16 10:27:10;;;;;;;5.07;3.53;;;;;;;24.20;47.33;99811.53;5114610;28;20126;-62
2023/06/16 10:29:39;;;;;;;6.07;3.90;;;;;;;24.22;47.94;99809.44;5114758;28;20054;-63
2023/06/16 10:32:10;;;;;;;6.35;3.72;;;;;;;24.23;48.16;99795.66;5114799;28;20048;-62
2023/06/16 10:34:47;;;;;;;6.30;4.10;;;;;;;24.28;47.84;99795.06;5114791;28;20051;-61
2023/06/16 10:37:16;;;;;;;5.75;3.85;;;;;;;24.29;47.89;99794.03;5114794;28;20043;-61
2023/06/16 10:39:46;;;;;;;6.97;3.88;;;;;;;24.30;47.55;99793.00;5114868;28;20044;-63
2023/06/16 10:42:16;;;;;;;5.88;4.20;;;;;;;24.32;47.13;99781.94;5114789;28;20076;-62
2023/06/16 10:44:44;;;;;;;6.43;4.25;;;;;;;24.34;47.23;99793.50;5114585;27;20047;-62
2023/06/16 10:47:27;;;;;;;7.38;3.60;;;;;;;24.37;47.55;99796.69;5114483;28;20411;-63
2023/06/16 10:49:58;;;;;;;5.70;4.00;;;;;;;24.39;47.76;99797.31;5114071;28;20054;-63
2023/06/16 10:52:35;;;;;;;5.95;4.03;;;;;;;24.41;47.73;99800.69;5114131;28;20051;-62
2023/06/16 10:55:18;;;;;;;8.18;4.20;;;;;;;24.45;46.94;99795.72;5114212;28;20234;-63
2023/06/16 10:57:57;;;;;;;5.45;4.15;;;;;;;24.45;46.94;99785.66;5113845;28;20460;-62
2023/06/16 11:00:27;;;;;;;5.15;4.00;;;;;;;24.48;46.22;99778.97;5113981;28;20109;-63
2023/06/16 11:03:00;;;;;;;4.97;3.70;;;;;;;24.51;46.31;99776.72;5114169;28;20059;-62
2023/06/16 11:05:39;;;;;;;5.40;3.97;;;;;;;24.52;46.46;99777.56;5114136;28;20071;-62
2023/06/16 11:08:14;;;;;;;6.57;4.10;;;;;;;24.53;46.32;99779.25;5113950;28;20408;-63
2023/06/16 11:10:50;;;;;;;5.15;4.13;;;;;;;24.55;46.63;99779.91;5113996;28;20044;-61
2023/06/16 11:13:23;;;;;;;6.93;4.82;;;;;;;24.56;46.58;99784.31;5113849;28;20507;-63
2023/06/16 11:15:54;;;;;;;6.28;4.53;;;;;;;24.58;46.48;99784.09;5113755;28;20046;-63
2023/06/16 11:18:25;;;;;;;5.78;4.20;;;;;;;24.60;46.75;99788.31;5113756;28;20063;-62
2023/06/16 11:20:57;;;;;;;6.43;4.47;;;;;;;24.63;46.71;99776.19;5113949;28;20047;-63
2023/06/16 11:23:26;;;;;;;7.30;4.47;;;;;;;24.66;46.84;99775.81;5113697;28;20055;-61
2023/06/16 11:26:03;;;;;;;7.30;4.78;;;;;;;24.68;46.52;99779.19;5114028;28;20048;-62
2023/06/16 11:28:33;;;;;;;8.57;5.00;;;;;;;24.67;46.58;99772.88;5114004;28;20043;-62
2023/06/16 11:31:02;;;;;;;9.00;4.78;;;;;;;24.69;46.09;99769.94;5113788;28;20467;-62
2023/06/16 11:33:32;;;;;;;6.45;4.68;;;;;;;24.71;46.26;99771.47;5113415;28;20039;-63
2023/06/16 11:36:15;;;;;;;7.47;5.20;;;;;;;24.73;46.17;99763.09;5112908;28;20406;-63
2023/06/16 11:38:44;;;;;;;6.30;4.53;;;;;;;24.75;46.17;99769.19;5113210;28;20044;-61
2023/06/16 11:41:16;;;;;;;7.72;4.90;;;;;;;24.78;46.29;99764.16;5113270;28;20047;-62
2023/06/16 11:43:45;;;;;;;6.65;4.57;;;;;;;24.80;46.32;99766.69;5113273;28;20044;-63
2023/06/16 11:46:13;;;;;;;5.75;4.72;;;;;;;24.81;45.89;99766.53;5113845;28;20074;-61